sensor_id;sensor_type;location;lat;lon;timestamp;P1;durP1;ratioP1;P2;durP2;ratioP2
73382;SDS011;61600;48.126;11.542;2024-02-16T00:01:02;5.00;;;3.13;;
73382;SDS011;61600;48.126;11.542;2024-02-16T00:03:28;6.15;;;3.35;;
73382;SDS011;61600;48.126;11.542;2024-02-16T00:05:54;6.05;;;3.20;;
73382;SDS011;61600;48.126;11.542;2024-02-16T00:08:20;5.13;;;3.35;;
73382;SDS011;61600;48.126;11.542;2024-02-16T00:10:46;5.93;;;3.25;;
73382;SDS011;61600;48.126;11.542;2024-02-16T00:13:12;5.95;;;3.58;;
73382;SDS011;61600;48.126;11.542;2024-02-16T00:15:38;8.85;;;3.85;;
73382;SDS011;61600;48.126;11.542;2024-02-16T00:18:05;8.75;;;3.50;;
73382;SDS011;61600;48.126;11.542;2024-02-16T00:20:32;8.43;;;3.78;;
73382;SDS011;61600;48.126;11.542;2024-02-16T00:22:57;7.97;;;3.70;;
73382;SDS011;61600;48.126;11.542;2024-02-16T00:25:23;5.88;;;3.80;;
73382;SDS011;61600;48.126;11.542;2024-02-16T00:27:49;7.28;;;3.80;;
73382;SDS011;61600;48.126;11.542;2024-02-16T00:30:16;6.40;;;3.40;;
73382;SDS011;61600;48.126;11.542;2024-02-16T00:32:43;6.20;;;3.65;;
73382;SDS011;61600;48.126;11.542;2024-02-16T00:35:10;7.45;;;3.80;;
73382;SDS011;61600;48.126;11.542;2024-02-16T00:37:44;7.60;;;3.45;;
73382;SDS011;61600;48.126;11.542;2024-02-16T00:40:11;6.95;;;3.60;;
73382;SDS011;61600;48.126;11.542;2024-02-16T00:42:37;8.48;;;4.30;;
73382;SDS011;61600;48.126;11.542;2024-02-16T00:45:03;6.88;;;3.63;;
73382;SDS011;61600;48.126;11.542;2024-02-16T00:47:29;8.00;;;4.75;;
73382;SDS011;61600;48.126;11.542;2024-02-16T00:49:55;7.63;;;4.03;;
73382;SDS011;61600;48.126;11.542;2024-02-16T00:54:48;7.05;;;3.65;;
73382;SDS011;61600;48.126;11.542;2024-02-16T00:57:14;8.15;;;3.95;;
73382;SDS011;61600;48.126;11.542;2024-02-16T00:59:40;7.45;;;3.78;;
73382;SDS011;61600;48.126;11.542;2024-02-16T01:02:06;7.20;;;3.40;;
73382;SDS011;61600;48.126;11.542;2024-02-16T01:04:32;6.25;;;3.22;;
73382;SDS011;61600;48.126;11.542;2024-02-16T01:06:58;6.20;;;3.25;;
73382;SDS011;61600;48.126;11.542;2024-02-16T01:09:24;6.53;;;3.33;;
73382;SDS011;61600;48.126;11.542;2024-02-16T01:11:50;5.75;;;3.53;;
73382;SDS011;61600;48.126;11.542;2024-02-16T01:14:17;5.75;;;3.17;;
73382;SDS011;61600;48.126;11.542;2024-02-16T01:16:42;5.60;;;3.58;;
73382;SDS011;61600;48.126;11.542;2024-02-16T01:19:08;6.15;;;2.97;;
73382;SDS011;61600;48.126;11.542;2024-02-16T01:21:35;6.10;;;3.30;;
73382;SDS011;61600;48.126;11.542;2024-02-16T01:24:01;6.60;;;3.72;;
73382;SDS011;61600;48.126;11.542;2024-02-16T01:26:27;7.47;;;3.38;;
73382;SDS011;61600;48.126;11.542;2024-02-16T01:28:53;6.13;;;3.30;;
73382;SDS011;61600;48.126;11.542;2024-02-16T01:31:20;5.47;;;3.00;;
73382;SDS011;61600;48.126;11.542;2024-02-16T01:33:48;5.18;;;2.97;;
73382;SDS011;61600;48.126;11.542;2024-02-16T01:36:14;6.20;;;3.15;;
73382;SDS011;61600;48.126;11.542;2024-02-16T01:38:40;7.90;;;3.20;;
73382;SDS011;61600;48.126;11.542;2024-02-16T01:41:05;6.03;;;3.22;;
73382;SDS011;61600;48.126;11.542;2024-02-16T01:43:34;6.68;;;3.42;;
73382;SDS011;61600;48.126;11.542;2024-02-16T01:46:00;6.38;;;3.10;;
73382;SDS011;61600;48.126;11.542;2024-02-16T01:48:26;6.68;;;3.33;;
73382;SDS011;61600;48.126;11.542;2024-02-16T01:50:52;7.47;;;3.47;;
73382;SDS011;61600;48.126;11.542;2024-02-16T01:53:19;5.85;;;3.50;;
73382;SDS011;61600;48.126;11.542;2024-02-16T01:55:46;7.85;;;3.42;;
73382;SDS011;61600;48.126;11.542;2024-02-16T01:58:12;9.98;;;3.60;;
73382;SDS011;61600;48.126;11.542;2024-02-16T02:00:37;8.73;;;3.83;;
73382;SDS011;61600;48.126;11.542;2024-02-16T02:03:04;7.78;;;3.20;;
73382;SDS011;61600;48.126;11.542;2024-02-16T02:05:31;7.20;;;3.45;;
73382;SDS011;61600;48.126;11.542;2024-02-16T02:07:57;5.90;;;3.60;;
73382;SDS011;61600;48.126;11.542;2024-02-16T02:10:22;7.97;;;3.40;;
73382;SDS011;61600;48.126;11.542;2024-02-16T02:12:49;6.22;;;3.25;;
73382;SDS011;61600;48.126;11.542;2024-02-16T02:15:15;7.82;;;3.55;;
73382;SDS011;61600;48.126;11.542;2024-02-16T02:17:41;6.38;;;3.30;;
73382;SDS011;61600;48.126;11.542;2024-02-16T02:20:06;6.38;;;3.38;;
73382;SDS011;61600;48.126;11.542;2024-02-16T02:22:39;6.03;;;3.30;;
73382;SDS011;61600;48.126;11.542;2024-02-16T02:25:04;5.43;;;3.33;;
73382;SDS011;61600;48.126;11.542;2024-02-16T02:27:30;6.28;;;3.03;;
73382;SDS011;61600;48.126;11.542;2024-02-16T02:29:56;11.15;;;3.20;;
73382;SDS011;61600;48.126;11.542;2024-02-16T02:32:23;5.85;;;3.08;;
73382;SDS011;61600;48.126;11.542;2024-02-16T02:34:49;5.22;;;2.88;;
73382;SDS011;61600;48.126;11.542;2024-02-16T02:39:41;7.47;;;3.05;;
73382;SDS011;61600;48.126;11.542;2024-02-16T02:42:12;5.25;;;3.15;;
73382;SDS011;61600;48.126;11.542;2024-02-16T02:44:37;5.45;;;3.15;;
73382;SDS011;61600;48.126;11.542;2024-02-16T02:47:05;5.88;;;3.03;;
73382;SDS011;61600;48.126;11.542;2024-02-16T02:49:30;6.75;;;3.15;;
73382;SDS011;61600;48.126;11.542;2024-02-16T02:51:58;6.68;;;3.17;;
73382;SDS011;61600;48.126;11.542;2024-02-16T02:54:25;4.57;;;2.50;;
73382;SDS011;61600;48.126;11.542;2024-02-16T02:56:50;5.82;;;2.80;;
73382;SDS011;61600;48.126;11.542;2024-02-16T02:59:16;5.45;;;2.97;;
73382;SDS011;61600;48.126;11.542;2024-02-16T03:01:41;5.57;;;2.83;;
73382;SDS011;61600;48.126;11.542;2024-02-16T03:04:07;7.63;;;3.20;;
73382;SDS011;61600;48.126;11.542;2024-02-16T03:06:34;5.43;;;3.20;;
73382;SDS011;61600;48.126;11.542;2024-02-16T03:09:00;6.72;;;3.17;;
73382;SDS011;61600;48.126;11.542;2024-02-16T03:11:25;6.28;;;2.72;;
73382;SDS011;61600;48.126;11.542;2024-02-16T03:13:51;5.03;;;2.78;;
73382;SDS011;61600;48.126;11.542;2024-02-16T03:16:17;4.85;;;2.70;;
73382;SDS011;61600;48.126;11.542;2024-02-16T03:18:43;4.85;;;2.67;;
73382;SDS011;61600;48.126;11.542;2024-02-16T03:21:12;4.93;;;2.35;;
73382;SDS011;61600;48.126;11.542;2024-02-16T03:23:41;5.53;;;2.95;;
73382;SDS011;61600;48.126;11.542;2024-02-16T03:26:13;4.60;;;2.65;;
73382;SDS011;61600;48.126;11.542;2024-02-16T03:28:39;5.28;;;2.78;;
73382;SDS011;61600;48.126;11.542;2024-02-16T03:31:05;5.18;;;2.95;;
73382;SDS011;61600;48.126;11.542;2024-02-16T03:33:31;6.88;;;3.00;;
73382;SDS011;61600;48.126;11.542;2024-02-16T03:35:56;4.93;;;2.50;;
73382;SDS011;61600;48.126;11.542;2024-02-16T03:38:22;5.45;;;2.80;;
73382;SDS011;61600;48.126;11.542;2024-02-16T03:40:48;5.82;;;2.85;;
73382;SDS011;61600;48.126;11.542;2024-02-16T03:43:13;6.00;;;2.78;;
73382;SDS011;61600;48.126;11.542;2024-02-16T03:45:40;5.70;;;2.78;;
73382;SDS011;61600;48.126;11.542;2024-02-16T03:48:06;10.10;;;2.83;;
73382;SDS011;61600;48.126;11.542;2024-02-16T03:50:32;6.65;;;2.63;;
73382;SDS011;61600;48.126;11.542;2024-02-16T03:52:58;5.70;;;2.75;;
73382;SDS011;61600;48.126;11.542;2024-02-16T03:55:24;7.63;;;3.00;;
73382;SDS011;61600;48.126;11.542;2024-02-16T03:57:53;6.93;;;2.70;;
73382;SDS011;61600;48.126;11.542;2024-02-16T04:00:19;5.70;;;2.88;;
73382;SDS011;61600;48.126;11.542;2024-02-16T04:02:45;5.20;;;2.70;;
73382;SDS011;61600;48.126;11.542;2024-02-16T04:05:11;7.18;;;2.90;;
73382;SDS011;61600;48.126;11.542;2024-02-16T04:07:37;6.53;;;2.78;;
73382;SDS011;61600;48.126;11.542;2024-02-16T04:10:04;6.00;;;2.63;;
73382;SDS011;61600;48.126;11.542;2024-02-16T04:12:32;4.90;;;2.47;;
73382;SDS011;61600;48.126;11.542;2024-02-16T04:14:57;5.15;;;2.60;;
73382;SDS011;61600;48.126;11.542;2024-02-16T04:17:23;7.22;;;2.80;;
73382;SDS011;61600;48.126;11.542;2024-02-16T04:19:49;7.25;;;2.50;;
73382;SDS011;61600;48.126;11.542;2024-02-16T04:22:15;6.68;;;2.33;;
73382;SDS011;61600;48.126;11.542;2024-02-16T04:24:41;8.80;;;2.90;;
73382;SDS011;61600;48.126;11.542;2024-02-16T04:27:06;4.35;;;2.20;;
73382;SDS011;61600;48.126;11.542;2024-02-16T04:29:32;5.85;;;2.63;;
73382;SDS011;61600;48.126;11.542;2024-02-16T04:31:58;5.63;;;2.42;;
73382;SDS011;61600;48.126;11.542;2024-02-16T04:34:23;4.80;;;2.45;;
73382;SDS011;61600;48.126;11.542;2024-02-16T04:36:49;6.03;;;2.42;;
73382;SDS011;61600;48.126;11.542;2024-02-16T04:39:14;7.15;;;3.00;;
73382;SDS011;61600;48.126;11.542;2024-02-16T04:41:40;6.80;;;2.63;;
73382;SDS011;61600;48.126;11.542;2024-02-16T04:44:06;5.70;;;2.45;;
73382;SDS011;61600;48.126;11.542;2024-02-16T04:46:31;6.18;;;2.97;;
73382;SDS011;61600;48.126;11.542;2024-02-16T04:48:57;6.13;;;2.55;;
73382;SDS011;61600;48.126;11.542;2024-02-16T04:51:23;5.50;;;2.20;;
73382;SDS011;61600;48.126;11.542;2024-02-16T04:53:48;5.82;;;2.50;;
73382;SDS011;61600;48.126;11.542;2024-02-16T04:56:14;5.35;;;2.45;;
73382;SDS011;61600;48.126;11.542;2024-02-16T04:58:40;4.85;;;2.10;;
73382;SDS011;61600;48.126;11.542;2024-02-16T05:01:08;4.15;;;1.90;;
73382;SDS011;61600;48.126;11.542;2024-02-16T05:03:35;5.20;;;2.58;;
73382;SDS011;61600;48.126;11.542;2024-02-16T05:06:00;4.47;;;1.98;;
73382;SDS011;61600;48.126;11.542;2024-02-16T05:08:26;5.38;;;2.45;;
73382;SDS011;61600;48.126;11.542;2024-02-16T05:10:51;5.35;;;2.38;;
73382;SDS011;61600;48.126;11.542;2024-02-16T05:13:17;3.72;;;2.10;;
73382;SDS011;61600;48.126;11.542;2024-02-16T05:15:43;4.32;;;2.03;;
73382;SDS011;61600;48.126;11.542;2024-02-16T05:18:08;5.28;;;2.35;;
73382;SDS011;61600;48.126;11.542;2024-02-16T05:20:39;7.13;;;2.47;;
73382;SDS011;61600;48.126;11.542;2024-02-16T05:23:05;3.80;;;2.25;;
73382;SDS011;61600;48.126;11.542;2024-02-16T05:25:31;6.75;;;2.03;;
73382;SDS011;61600;48.126;11.542;2024-02-16T05:27:56;5.22;;;2.45;;
73382;SDS011;61600;48.126;11.542;2024-02-16T05:30:22;4.43;;;2.03;;
73382;SDS011;61600;48.126;11.542;2024-02-16T05:32:48;6.90;;;2.95;;
73382;SDS011;61600;48.126;11.542;2024-02-16T05:35:14;4.95;;;2.55;;
73382;SDS011;61600;48.126;11.542;2024-02-16T05:40:18;4.65;;;2.20;;
73382;SDS011;61600;48.126;11.542;2024-02-16T05:42:46;6.07;;;2.28;;
73382;SDS011;61600;48.126;11.542;2024-02-16T05:45:13;9.10;;;2.53;;
73382;SDS011;61600;48.126;11.542;2024-02-16T05:47:46;6.90;;;3.00;;
73382;SDS011;61600;48.126;11.542;2024-02-16T05:50:13;5.90;;;2.67;;
73382;SDS011;61600;48.126;11.542;2024-02-16T05:52:40;10.52;;;2.83;;
73382;SDS011;61600;48.126;11.542;2024-02-16T05:55:07;9.10;;;3.03;;
73382;SDS011;61600;48.126;11.542;2024-02-16T05:57:34;5.97;;;2.70;;
73382;SDS011;61600;48.126;11.542;2024-02-16T06:00:01;7.82;;;2.83;;
73382;SDS011;61600;48.126;11.542;2024-02-16T06:02:29;3.65;;;1.70;;
73382;SDS011;61600;48.126;11.542;2024-02-16T06:04:58;7.05;;;2.25;;
73382;SDS011;61600;48.126;11.542;2024-02-16T06:07:26;5.93;;;1.70;;
73382;SDS011;61600;48.126;11.542;2024-02-16T06:09:57;5.40;;;2.38;;
73382;SDS011;61600;48.126;11.542;2024-02-16T06:12:24;5.00;;;1.77;;
73382;SDS011;61600;48.126;11.542;2024-02-16T06:14:50;4.65;;;1.77;;
73382;SDS011;61600;48.126;11.542;2024-02-16T06:17:16;3.58;;;1.50;;
73382;SDS011;61600;48.126;11.542;2024-02-16T06:19:43;6.15;;;2.10;;
73382;SDS011;61600;48.126;11.542;2024-02-16T06:22:09;3.58;;;1.73;;
73382;SDS011;61600;48.126;11.542;2024-02-16T06:24:37;5.45;;;2.60;;
73382;SDS011;61600;48.126;11.542;2024-02-16T06:27:02;4.75;;;1.52;;
73382;SDS011;61600;48.126;11.542;2024-02-16T06:29:29;6.45;;;2.30;;
73382;SDS011;61600;48.126;11.542;2024-02-16T06:31:57;4.70;;;1.73;;
73382;SDS011;61600;48.126;11.542;2024-02-16T06:34:23;9.63;;;2.25;;
73382;SDS011;61600;48.126;11.542;2024-02-16T06:36:51;11.35;;;2.58;;
73382;SDS011;61600;48.126;11.542;2024-02-16T06:39:17;4.75;;;1.73;;
73382;SDS011;61600;48.126;11.542;2024-02-16T06:41:44;5.78;;;2.35;;
73382;SDS011;61600;48.126;11.542;2024-02-16T06:44:11;3.83;;;1.55;;
73382;SDS011;61600;48.126;11.542;2024-02-16T06:46:37;4.00;;;1.55;;
73382;SDS011;61600;48.126;11.542;2024-02-16T06:49:04;4.72;;;1.77;;
73382;SDS011;61600;48.126;11.542;2024-02-16T06:51:29;5.57;;;2.28;;
73382;SDS011;61600;48.126;11.542;2024-02-16T06:53:55;6.65;;;2.15;;
73382;SDS011;61600;48.126;11.542;2024-02-16T06:56:21;4.63;;;1.85;;
73382;SDS011;61600;48.126;11.542;2024-02-16T06:58:47;5.38;;;1.52;;
73382;SDS011;61600;48.126;11.542;2024-02-16T07:01:13;4.97;;;2.13;;
73382;SDS011;61600;48.126;11.542;2024-02-16T07:03:39;4.05;;;1.70;;
73382;SDS011;61600;48.126;11.542;2024-02-16T07:06:05;6.80;;;2.25;;
73382;SDS011;61600;48.126;11.542;2024-02-16T07:08:38;7.03;;;2.35;;
73382;SDS011;61600;48.126;11.542;2024-02-16T07:11:04;5.57;;;2.60;;
73382;SDS011;61600;48.126;11.542;2024-02-16T07:13:31;9.48;;;2.78;;
73382;SDS011;61600;48.126;11.542;2024-02-16T07:15:57;5.88;;;2.60;;
73382;SDS011;61600;48.126;11.542;2024-02-16T07:18:23;7.75;;;2.30;;
73382;SDS011;61600;48.126;11.542;2024-02-16T07:20:49;5.43;;;2.30;;
73382;SDS011;61600;48.126;11.542;2024-02-16T07:23:14;6.47;;;2.35;;
73382;SDS011;61600;48.126;11.542;2024-02-16T07:25:40;4.80;;;2.20;;
73382;SDS011;61600;48.126;11.542;2024-02-16T07:28:07;11.13;;;2.70;;
73382;SDS011;61600;48.126;11.542;2024-02-16T07:30:34;6.60;;;2.33;;
73382;SDS011;61600;48.126;11.542;2024-02-16T07:33:06;12.35;;;4.60;;
73382;SDS011;61600;48.126;11.542;2024-02-16T07:35:35;5.38;;;2.13;;
73382;SDS011;61600;48.126;11.542;2024-02-16T07:38:01;5.50;;;1.90;;
73382;SDS011;61600;48.126;11.542;2024-02-16T07:40:28;6.18;;;2.05;;
73382;SDS011;61600;48.126;11.542;2024-02-16T07:42:55;6.80;;;2.55;;
73382;SDS011;61600;48.126;11.542;2024-02-16T07:45:26;8.10;;;2.90;;
73382;SDS011;61600;48.126;11.542;2024-02-16T07:47:52;5.72;;;2.53;;
73382;SDS011;61600;48.126;11.542;2024-02-16T07:50:18;6.85;;;2.83;;
73382;SDS011;61600;48.126;11.542;2024-02-16T07:52:45;8.43;;;2.38;;
73382;SDS011;61600;48.126;11.542;2024-02-16T07:55:11;10.07;;;3.40;;
73382;SDS011;61600;48.126;11.542;2024-02-16T07:57:37;8.20;;;3.20;;
73382;SDS011;61600;48.126;11.542;2024-02-16T08:00:04;8.75;;;3.03;;
73382;SDS011;61600;48.126;11.542;2024-02-16T08:02:31;10.57;;;3.47;;
73382;SDS011;61600;48.126;11.542;2024-02-16T08:04:59;9.93;;;2.85;;
73382;SDS011;61600;48.126;11.542;2024-02-16T08:07:25;6.78;;;2.67;;
73382;SDS011;61600;48.126;11.542;2024-02-16T08:09:52;6.88;;;2.92;;
73382;SDS011;61600;48.126;11.542;2024-02-16T08:12:18;10.18;;;2.53;;
73382;SDS011;61600;48.126;11.542;2024-02-16T08:14:44;10.60;;;2.97;;
73382;SDS011;61600;48.126;11.542;2024-02-16T08:17:13;4.85;;;2.17;;
73382;SDS011;61600;48.126;11.542;2024-02-16T08:19:40;5.28;;;2.25;;
73382;SDS011;61600;48.126;11.542;2024-02-16T08:22:08;8.48;;;3.08;;
73382;SDS011;61600;48.126;11.542;2024-02-16T08:24:37;8.05;;;2.75;;
73382;SDS011;61600;48.126;11.542;2024-02-16T08:27:05;6.25;;;3.20;;
73382;SDS011;61600;48.126;11.542;2024-02-16T08:29:32;11.05;;;2.25;;
73382;SDS011;61600;48.126;11.542;2024-02-16T08:31:58;10.63;;;3.00;;
73382;SDS011;61600;48.126;11.542;2024-02-16T08:34:23;6.07;;;2.60;;
73382;SDS011;61600;48.126;11.542;2024-02-16T08:36:52;6.70;;;2.80;;
73382;SDS011;61600;48.126;11.542;2024-02-16T08:39:18;5.63;;;2.40;;
73382;SDS011;61600;48.126;11.542;2024-02-16T08:41:52;6.47;;;2.40;;
73382;SDS011;61600;48.126;11.542;2024-02-16T08:44:18;6.45;;;2.45;;
73382;SDS011;61600;48.126;11.542;2024-02-16T08:46:44;7.45;;;2.17;;
73382;SDS011;61600;48.126;11.542;2024-02-16T08:49:11;5.60;;;1.98;;
73382;SDS011;61600;48.126;11.542;2024-02-16T08:51:37;7.90;;;2.35;;
73382;SDS011;61600;48.126;11.542;2024-02-16T08:54:05;5.28;;;2.10;;
73382;SDS011;61600;48.126;11.542;2024-02-16T08:56:31;5.97;;;2.25;;
73382;SDS011;61600;48.126;11.542;2024-02-16T08:58:57;4.20;;;1.98;;
73382;SDS011;61600;48.126;11.542;2024-02-16T09:01:32;9.05;;;2.35;;
73382;SDS011;61600;48.126;11.542;2024-02-16T09:04:02;8.23;;;1.90;;
73382;SDS011;61600;48.126;11.542;2024-02-16T09:06:29;5.10;;;2.30;;
73382;SDS011;61600;48.126;11.542;2024-02-16T09:08:55;6.50;;;2.08;;
73382;SDS011;61600;48.126;11.542;2024-02-16T09:11:21;8.27;;;2.20;;
73382;SDS011;61600;48.126;11.542;2024-02-16T09:13:47;8.23;;;2.03;;
73382;SDS011;61600;48.126;11.542;2024-02-16T09:16:13;6.05;;;1.88;;
73382;SDS011;61600;48.126;11.542;2024-02-16T09:18:45;8.88;;;2.25;;
73382;SDS011;61600;48.126;11.542;2024-02-16T09:21:10;8.90;;;2.05;;
73382;SDS011;61600;48.126;11.542;2024-02-16T09:23:37;7.95;;;2.10;;
73382;SDS011;61600;48.126;11.542;2024-02-16T09:28:29;6.85;;;1.98;;
73382;SDS011;61600;48.126;11.542;2024-02-16T09:30:56;10.18;;;2.47;;
73382;SDS011;61600;48.126;11.542;2024-02-16T09:33:23;6.10;;;2.22;;
73382;SDS011;61600;48.126;11.542;2024-02-16T09:35:49;6.50;;;2.00;;
73382;SDS011;61600;48.126;11.542;2024-02-16T09:38:16;6.05;;;1.80;;
73382;SDS011;61600;48.126;11.542;2024-02-16T09:40:43;3.25;;;1.63;;
73382;SDS011;61600;48.126;11.542;2024-02-16T09:43:08;4.43;;;1.55;;
73382;SDS011;61600;48.126;11.542;2024-02-16T09:45:34;8.18;;;1.85;;
73382;SDS011;61600;48.126;11.542;2024-02-16T09:48:00;3.70;;;1.60;;
73382;SDS011;61600;48.126;11.542;2024-02-16T09:50:27;4.57;;;1.27;;
73382;SDS011;61600;48.126;11.542;2024-02-16T09:52:56;3.45;;;1.83;;
73382;SDS011;61600;48.126;11.542;2024-02-16T09:55:24;3.30;;;1.48;;
73382;SDS011;61600;48.126;11.542;2024-02-16T09:58:00;6.78;;;1.92;;
73382;SDS011;61600;48.126;11.542;2024-02-16T10:00:32;2.65;;;1.17;;
73382;SDS011;61600;48.126;11.542;2024-02-16T10:02:58;3.58;;;1.48;;
73382;SDS011;61600;48.126;11.542;2024-02-16T10:05:24;5.18;;;1.80;;
73382;SDS011;61600;48.126;11.542;2024-02-16T10:07:50;3.70;;;1.23;;
73382;SDS011;61600;48.126;11.542;2024-02-16T10:10:19;2.80;;;1.27;;
73382;SDS011;61600;48.126;11.542;2024-02-16T10:12:49;3.53;;;1.52;;
73382;SDS011;61600;48.126;11.542;2024-02-16T10:15:19;3.80;;;1.85;;
73382;SDS011;61600;48.126;11.542;2024-02-16T10:17:59;4.78;;;1.58;;
73382;SDS011;61600;48.126;11.542;2024-02-16T10:20:25;3.00;;;1.15;;
73382;SDS011;61600;48.126;11.542;2024-02-16T10:23:07;3.90;;;1.63;;
73382;SDS011;61600;48.126;11.542;2024-02-16T10:25:37;4.78;;;1.20;;
73382;SDS011;61600;48.126;11.542;2024-02-16T10:28:10;4.05;;;1.40;;
73382;SDS011;61600;48.126;11.542;2024-02-16T10:30:39;4.53;;;1.40;;
73382;SDS011;61600;48.126;11.542;2024-02-16T10:33:07;2.30;;;1.25;;
73382;SDS011;61600;48.126;11.542;2024-02-16T10:35:34;5.05;;;1.30;;
73382;SDS011;61600;48.126;11.542;2024-02-16T10:38:01;4.10;;;1.10;;
73382;SDS011;61600;48.126;11.542;2024-02-16T10:40:30;4.88;;;1.23;;
73382;SDS011;61600;48.126;11.542;2024-02-16T10:43:06;3.05;;;1.20;;
73382;SDS011;61600;48.126;11.542;2024-02-16T10:48:04;1.90;;;1.10;;
73382;SDS011;61600;48.126;11.542;2024-02-16T10:50:35;3.95;;;1.30;;
73382;SDS011;61600;48.126;11.542;2024-02-16T10:53:04;3.00;;;1.00;;
73382;SDS011;61600;48.126;11.542;2024-02-16T10:55:34;2.47;;;0.93;;
73382;SDS011;61600;48.126;11.542;2024-02-16T10:58:00;4.45;;;1.00;;
73382;SDS011;61600;48.126;11.542;2024-02-16T11:00:25;2.28;;;1.10;;
73382;SDS011;61600;48.126;11.542;2024-02-16T11:02:54;2.63;;;0.90;;
73382;SDS011;61600;48.126;11.542;2024-02-16T11:05:34;4.80;;;0.93;;
73382;SDS011;61600;48.126;11.542;2024-02-16T11:08:04;3.45;;;1.00;;
73382;SDS011;61600;48.126;11.542;2024-02-16T11:10:36;2.13;;;1.00;;
73382;SDS011;61600;48.126;11.542;2024-02-16T11:13:04;2.78;;;1.17;;
73382;SDS011;61600;48.126;11.542;2024-02-16T11:15:30;1.65;;;0.80;;
73382;SDS011;61600;48.126;11.542;2024-02-16T11:18:00;2.40;;;0.95;;
73382;SDS011;61600;48.126;11.542;2024-02-16T11:20:26;1.73;;;1.00;;
73382;SDS011;61600;48.126;11.542;2024-02-16T11:22:52;3.22;;;1.15;;
73382;SDS011;61600;48.126;11.542;2024-02-16T11:25:30;4.70;;;1.20;;
73382;SDS011;61600;48.126;11.542;2024-02-16T11:27:57;2.08;;;0.95;;
73382;SDS011;61600;48.126;11.542;2024-02-16T11:30:24;3.00;;;1.00;;
73382;SDS011;61600;48.126;11.542;2024-02-16T11:32:50;5.07;;;1.10;;
73382;SDS011;61600;48.126;11.542;2024-02-16T11:35:18;2.85;;;0.93;;
73382;SDS011;61600;48.126;11.542;2024-02-16T11:37:44;2.22;;;1.00;;
73382;SDS011;61600;48.126;11.542;2024-02-16T11:40:13;2.35;;;1.10;;
73382;SDS011;61600;48.126;11.542;2024-02-16T11:42:42;2.60;;;1.35;;
73382;SDS011;61600;48.126;11.542;2024-02-16T11:45:10;5.95;;;1.38;;
73382;SDS011;61600;48.126;11.542;2024-02-16T11:47:37;3.03;;;1.15;;
73382;SDS011;61600;48.126;11.542;2024-02-16T11:50:04;2.63;;;1.15;;
73382;SDS011;61600;48.126;11.542;2024-02-16T11:52:31;2.60;;;1.15;;
73382;SDS011;61600;48.126;11.542;2024-02-16T11:54:58;7.40;;;1.15;;
73382;SDS011;61600;48.126;11.542;2024-02-16T11:57:29;2.47;;;1.40;;
73382;SDS011;61600;48.126;11.542;2024-02-16T11:59:55;8.88;;;1.30;;
73382;SDS011;61600;48.126;11.542;2024-02-16T12:02:23;3.38;;;1.00;;
73382;SDS011;61600;48.126;11.542;2024-02-16T12:04:59;2.78;;;1.13;;
73382;SDS011;61600;48.126;11.542;2024-02-16T12:07:25;3.05;;;1.10;;
73382;SDS011;61600;48.126;11.542;2024-02-16T12:09:56;4.80;;;1.20;;
73382;SDS011;61600;48.126;11.542;2024-02-16T12:12:28;3.47;;;1.00;;
73382;SDS011;61600;48.126;11.542;2024-02-16T12:14:56;4.78;;;1.27;;
73382;SDS011;61600;48.126;11.542;2024-02-16T12:17:25;2.40;;;0.98;;
73382;SDS011;61600;48.126;11.542;2024-02-16T12:19:51;4.03;;;1.10;;
73382;SDS011;61600;48.126;11.542;2024-02-16T12:22:17;2.35;;;1.15;;
73382;SDS011;61600;48.126;11.542;2024-02-16T12:24:44;2.83;;;1.10;;
73382;SDS011;61600;48.126;11.542;2024-02-16T12:27:13;2.42;;;1.23;;
73382;SDS011;61600;48.126;11.542;2024-02-16T12:29:42;5.07;;;1.25;;
73382;SDS011;61600;48.126;11.542;2024-02-16T12:32:08;5.00;;;1.15;;
73382;SDS011;61600;48.126;11.542;2024-02-16T12:34:37;3.78;;;1.25;;
73382;SDS011;61600;48.126;11.542;2024-02-16T12:37:06;2.42;;;1.17;;
73382;SDS011;61600;48.126;11.542;2024-02-16T12:39:43;2.42;;;1.02;;
73382;SDS011;61600;48.126;11.542;2024-02-16T12:42:11;2.70;;;0.93;;
73382;SDS011;61600;48.126;11.542;2024-02-16T12:44:39;3.10;;;1.10;;
73382;SDS011;61600;48.126;11.542;2024-02-16T12:47:05;2.28;;;1.10;;
73382;SDS011;61600;48.126;11.542;2024-02-16T12:49:31;2.22;;;1.17;;
73382;SDS011;61600;48.126;11.542;2024-02-16T12:51:57;2.88;;;1.00;;
73382;SDS011;61600;48.126;11.542;2024-02-16T12:54:23;2.83;;;1.23;;
73382;SDS011;61600;48.126;11.542;2024-02-16T12:56:48;2.88;;;0.98;;
73382;SDS011;61600;48.126;11.542;2024-02-16T12:59:15;3.75;;;1.10;;
73382;SDS011;61600;48.126;11.542;2024-02-16T13:01:40;3.47;;;1.00;;
73382;SDS011;61600;48.126;11.542;2024-02-16T13:04:08;3.30;;;1.17;;
73382;SDS011;61600;48.126;11.542;2024-02-16T13:06:35;2.47;;;1.10;;
73382;SDS011;61600;48.126;11.542;2024-02-16T13:09:00;3.20;;;0.90;;
73382;SDS011;61600;48.126;11.542;2024-02-16T13:11:27;3.47;;;1.00;;
73382;SDS011;61600;48.126;11.542;2024-02-16T13:13:54;2.78;;;1.00;;
73382;SDS011;61600;48.126;11.542;2024-02-16T13:16:19;2.97;;;1.00;;
73382;SDS011;61600;48.126;11.542;2024-02-16T13:21:11;3.58;;;1.10;;
73382;SDS011;61600;48.126;11.542;2024-02-16T13:23:38;3.88;;;0.95;;
73382;SDS011;61600;48.126;11.542;2024-02-16T13:26:04;3.55;;;1.20;;
73382;SDS011;61600;48.126;11.542;2024-02-16T13:28:31;4.50;;;1.38;;
73382;SDS011;61600;48.126;11.542;2024-02-16T13:30:58;3.20;;;0.98;;
73382;SDS011;61600;48.126;11.542;2024-02-16T13:33:25;2.28;;;1.08;;
73382;SDS011;61600;48.126;11.542;2024-02-16T13:35:51;3.17;;;1.10;;
73382;SDS011;61600;48.126;11.542;2024-02-16T13:38:17;2.78;;;1.00;;
73382;SDS011;61600;48.126;11.542;2024-02-16T13:40:42;3.08;;;1.13;;
73382;SDS011;61600;48.126;11.542;2024-02-16T13:43:10;2.40;;;1.17;;
73382;SDS011;61600;48.126;11.542;2024-02-16T13:45:53;2.10;;;1.15;;
73382;SDS011;61600;48.126;11.542;2024-02-16T13:48:20;6.45;;;1.70;;
73382;SDS011;61600;48.126;11.542;2024-02-16T13:50:48;3.92;;;1.13;;
73382;SDS011;61600;48.126;11.542;2024-02-16T13:53:14;4.13;;;1.05;;
73382;SDS011;61600;48.126;11.542;2024-02-16T13:58:07;2.70;;;1.05;;
73382;SDS011;61600;48.126;11.542;2024-02-16T14:00:32;2.25;;;0.90;;
73382;SDS011;61600;48.126;11.542;2024-02-16T14:02:58;5.57;;;1.48;;
73382;SDS011;61600;48.126;11.542;2024-02-16T14:05:24;3.92;;;1.17;;
73382;SDS011;61600;48.126;11.542;2024-02-16T14:07:51;3.38;;;1.60;;
73382;SDS011;61600;48.126;11.542;2024-02-16T14:10:29;2.42;;;1.25;;
73382;SDS011;61600;48.126;11.542;2024-02-16T14:12:55;4.35;;;1.58;;
73382;SDS011;61600;48.126;11.542;2024-02-16T14:15:20;2.75;;;1.33;;
73382;SDS011;61600;48.126;11.542;2024-02-16T14:17:46;4.72;;;1.42;;
73382;SDS011;61600;48.126;11.542;2024-02-16T14:20:12;3.00;;;1.25;;
73382;SDS011;61600;48.126;11.542;2024-02-16T14:22:38;2.83;;;1.13;;
73382;SDS011;61600;48.126;11.542;2024-02-16T14:25:03;4.22;;;1.70;;
73382;SDS011;61600;48.126;11.542;2024-02-16T14:27:29;4.90;;;1.60;;
73382;SDS011;61600;48.126;11.542;2024-02-16T14:29:55;3.90;;;1.52;;
73382;SDS011;61600;48.126;11.542;2024-02-16T14:32:22;2.97;;;1.23;;
73382;SDS011;61600;48.126;11.542;2024-02-16T14:34:48;3.90;;;1.50;;
73382;SDS011;61600;48.126;11.542;2024-02-16T14:37:13;4.10;;;0.93;;
73382;SDS011;61600;48.126;11.542;2024-02-16T14:39:39;4.38;;;1.52;;
73382;SDS011;61600;48.126;11.542;2024-02-16T14:42:07;6.13;;;1.60;;
73382;SDS011;61600;48.126;11.542;2024-02-16T14:44:33;4.47;;;1.50;;
73382;SDS011;61600;48.126;11.542;2024-02-16T14:46:59;3.95;;;1.75;;
73382;SDS011;61600;48.126;11.542;2024-02-16T14:49:25;5.20;;;1.48;;